sensor_id;sensor_type;location;lat;lon;timestamp;temperature;humidity
23629;DHT22;11991;57.150;-2.134;2023-02-28T00:02:30;5.80;99.90
23629;DHT22;11991;57.150;-2.134;2023-02-28T00:05:08;5.80;99.90
23629;DHT22;11991;57.150;-2.134;2023-02-28T00:07:37;5.80;99.90
23629;DHT22;11991;57.150;-2.134;2023-02-28T00:10:06;5.80;99.90
23629;DHT22;11991;57.150;-2.134;2023-02-28T00:12:35;5.80;99.90
23629;DHT22;11991;57.150;-2.134;2023-02-28T00:15:09;5.80;99.90
23629;DHT22;11991;57.150;-2.134;2023-02-28T00:17:37;5.80;99.90
23629;DHT22;11991;57.150;-2.134;2023-02-28T00:20:06;5.80;99.90
23629;DHT22;11991;57.150;-2.134;2023-02-28T00:22:39;5.80;99.90
23629;DHT22;11991;57.150;-2.134;2023-02-28T00:25:07;5.70;99.90
23629;DHT22;11991;57.150;-2.134;2023-02-28T00:27:36;5.80;99.90
23629;DHT22;11991;57.150;-2.134;2023-02-28T00:30:07;5.80;99.90
23629;DHT22;11991;57.150;-2.134;2023-02-28T00:32:36;5.80;99.90
23629;DHT22;11991;57.150;-2.134;2023-02-28T00:35:05;5.80;99.90
23629;DHT22;11991;57.150;-2.134;2023-02-28T00:37:33;5.70;99.90
23629;DHT22;11991;57.150;-2.134;2023-02-28T00:40:00;5.70;99.90
23629;DHT22;11991;57.150;-2.134;2023-02-28T00:42:28;5.70;99.90
23629;DHT22;11991;57.150;-2.134;2023-02-28T00:44:55;5.70;99.90
23629;DHT22;11991;57.150;-2.134;2023-02-28T00:47:23;5.70;99.90
23629;DHT22;11991;57.150;-2.134;2023-02-28T00:49:50;5.70;99.90
23629;DHT22;11991;57.150;-2.134;2023-02-28T00:52:17;5.70;99.90
23629;DHT22;11991;57.150;-2.134;2023-02-28T00:54:44;5.70;99.90
23629;DHT22;11991;57.150;-2.134;2023-02-28T00:57:14;5.70;99.90
23629;DHT22;11991;57.150;-2.134;2023-02-28T00:59:42;5.70;99.90
23629;DHT22;11991;57.150;-2.134;2023-02-28T01:02:10;5.60;99.90
23629;DHT22;11991;57.150;-2.134;2023-02-28T01:04:37;5.60;99.90
23629;DHT22;11991;57.150;-2.134;2023-02-28T01:07:04;5.60;99.90
23629;DHT22;11991;57.150;-2.134;2023-02-28T01:09:31;5.50;99.90
23629;DHT22;11991;57.150;-2.134;2023-02-28T01:11:59;5.50;99.90
23629;DHT22;11991;57.150;-2.134;2023-02-28T01:14:26;5.50;99.90
23629;DHT22;11991;57.150;-2.134;2023-02-28T01:16:54;5.40;99.90
23629;DHT22;11991;57.150;-2.134;2023-02-28T01:19:24;5.40;99.90
23629;DHT22;11991;57.150;-2.134;2023-02-28T01:21:51;5.40;99.90
23629;DHT22;11991;57.150;-2.134;2023-02-28T01:24:19;5.30;99.90
23629;DHT22;11991;57.150;-2.134;2023-02-28T01:26:46;5.30;99.90
23629;DHT22;11991;57.150;-2.134;2023-02-28T01:29:14;5.30;99.90
23629;DHT22;11991;57.150;-2.134;2023-02-28T01:31:42;5.30;99.90
23629;DHT22;11991;57.150;-2.134;2023-02-28T01:34:09;5.30;99.90
23629;DHT22;11991;57.150;-2.134;2023-02-28T01:36:36;5.20;99.90
23629;DHT22;11991;57.150;-2.134;2023-02-28T01:39:04;5.20;99.90
23629;DHT22;11991;57.150;-2.134;2023-02-28T01:41:33;5.20;99.90
23629;DHT22;11991;57.150;-2.134;2023-02-28T01:46:34;5.20;99.90
23629;DHT22;11991;57.150;-2.134;2023-02-28T01:49:09;5.20;99.90
23629;DHT22;11991;57.150;-2.134;2023-02-28T01:51:50;5.10;99.90
23629;DHT22;11991;57.150;-2.134;2023-02-28T01:54:25;5.10;99.90
23629;DHT22;11991;57.150;-2.134;2023-02-28T01:56:56;5.10;99.90
23629;DHT22;11991;57.150;-2.134;2023-02-28T01:59:35;5.10;99.90
23629;DHT22;11991;57.150;-2.134;2023-02-28T02:02:05;5.10;99.90
23629;DHT22;11991;57.150;-2.134;2023-02-28T02:04:38;5.10;99.90
23629;DHT22;11991;57.150;-2.134;2023-02-28T02:07:07;5.10;99.90
23629;DHT22;11991;57.150;-2.134;2023-02-28T02:09:35;5.10;99.90
23629;DHT22;11991;57.150;-2.134;2023-02-28T02:12:21;5.10;99.90
23629;DHT22;11991;57.150;-2.134;2023-02-28T02:15:22;5.10;99.90
23629;DHT22;11991;57.150;-2.134;2023-02-28T02:17:53;5.10;99.90
23629;DHT22;11991;57.150;-2.134;2023-02-28T02:34:56;5.00;99.90
23629;DHT22;11991;57.150;-2.134;2023-02-28T02:40:18;5.00;99.90
23629;DHT22;11991;57.150;-2.134;2023-02-28T02:43:05;5.00;99.90
23629;DHT22;11991;57.150;-2.134;2023-02-28T02:45:35;5.00;99.90
23629;DHT22;11991;57.150;-2.134;2023-02-28T02:48:10;5.00;99.90
23629;DHT22;11991;57.150;-2.134;2023-02-28T02:50:46;5.00;99.90
23629;DHT22;11991;57.150;-2.134;2023-02-28T02:53:18;5.00;99.90
23629;DHT22;11991;57.150;-2.134;2023-02-28T02:55:48;5.00;99.90
23629;DHT22;11991;57.150;-2.134;2023-02-28T02:58:26;5.00;99.90
23629;DHT22;11991;57.150;-2.134;2023-02-28T03:00:58;5.00;99.90
23629;DHT22;11991;57.150;-2.134;2023-02-28T03:03:28;5.00;99.90
23629;DHT22;11991;57.150;-2.134;2023-02-28T03:05:59;5.00;99.90
23629;DHT22;11991;57.150;-2.134;2023-02-28T03:08:29;5.00;99.90
23629;DHT22;11991;57.150;-2.134;2023-02-28T03:10:59;5.00;99.90
23629;DHT22;11991;57.150;-2.134;2023-02-28T03:13:42;5.00;99.90
23629;DHT22;11991;57.150;-2.134;2023-02-28T03:19:45;4.90;99.90
23629;DHT22;11991;57.150;-2.134;2023-02-28T03:22:49;4.90;99.90
23629;DHT22;11991;57.150;-2.134;2023-02-28T03:28:05;4.90;99.90
23629;DHT22;11991;57.150;-2.134;2023-02-28T03:30:47;4.90;99.90
23629;DHT22;11991;57.150;-2.134;2023-02-28T03:33:28;4.90;99.90
23629;DHT22;11991;57.150;-2.134;2023-02-28T03:36:05;4.90;99.90
23629;DHT22;11991;57.150;-2.134;2023-02-28T03:38:45;4.90;99.90
23629;DHT22;11991;57.150;-2.134;2023-02-28T03:44:05;4.80;99.90
23629;DHT22;11991;57.150;-2.134;2023-02-28T03:46:37;4.80;99.90
23629;DHT22;11991;57.150;-2.134;2023-02-28T03:49:32;4.80;99.90
23629;DHT22;11991;57.150;-2.134;2023-02-28T03:52:04;4.70;99.90
23629;DHT22;11991;57.150;-2.134;2023-02-28T03:54:37;4.70;99.90
23629;DHT22;11991;57.150;-2.134;2023-02-28T04:00:13;4.70;99.90
23629;DHT22;11991;57.150;-2.134;2023-02-28T04:02:41;4.70;99.90
23629;DHT22;11991;57.150;-2.134;2023-02-28T04:05:08;4.70;99.90
23629;DHT22;11991;57.150;-2.134;2023-02-28T04:07:36;4.60;99.90
23629;DHT22;11991;57.150;-2.134;2023-02-28T04:10:04;4.60;99.90
23629;DHT22;11991;57.150;-2.134;2023-02-28T04:12:32;4.60;99.90
23629;DHT22;11991;57.150;-2.134;2023-02-28T04:14:59;4.60;99.90
23629;DHT22;11991;57.150;-2.134;2023-02-28T04:17:27;4.60;99.90
23629;DHT22;11991;57.150;-2.134;2023-02-28T04:19:54;4.60;99.90
23629;DHT22;11991;57.150;-2.134;2023-02-28T04:22:23;4.60;99.90
23629;DHT22;11991;57.150;-2.134;2023-02-28T04:24:53;4.60;99.90
23629;DHT22;11991;57.150;-2.134;2023-02-28T04:27:21;4.60;99.90
23629;DHT22;11991;57.150;-2.134;2023-02-28T04:29:49;4.60;99.90
23629;DHT22;11991;57.150;-2.134;2023-02-28T04:32:16;4.60;99.90
23629;DHT22;11991;57.150;-2.134;2023-02-28T04:34:44;4.60;99.90
23629;DHT22;11991;57.150;-2.134;2023-02-28T04:37:11;4.60;99.90
23629;DHT22;11991;57.150;-2.134;2023-02-28T04:39:41;4.60;99.90
23629;DHT22;11991;57.150;-2.134;2023-02-28T04:42:09;4.60;99.90
23629;DHT22;11991;57.150;-2.134;2023-02-28T04:44:37;4.70;99.90
23629;DHT22;11991;57.150;-2.134;2023-02-28T04:47:04;4.60;99.90
23629;DHT22;11991;57.150;-2.134;2023-02-28T04:49:32;4.70;99.90
23629;DHT22;11991;57.150;-2.134;2023-02-28T04:51:59;4.70;99.90
23629;DHT22;11991;57.150;-2.134;2023-02-28T04:54:26;4.70;99.90
23629;DHT22;11991;57.150;-2.134;2023-02-28T04:56:55;4.70;99.90
23629;DHT22;11991;57.150;-2.134;2023-02-28T04:59:22;4.70;99.90
23629;DHT22;11991;57.150;-2.134;2023-02-28T05:01:49;4.70;99.90
23629;DHT22;11991;57.150;-2.134;2023-02-28T05:04:17;4.70;99.90
23629;DHT22;11991;57.150;-2.134;2023-02-28T05:06:45;4.70;99.90
23629;DHT22;11991;57.150;-2.134;2023-02-28T05:09:12;4.70;99.90
23629;DHT22;11991;57.150;-2.134;2023-02-28T05:11:40;4.70;99.90
23629;DHT22;11991;57.150;-2.134;2023-02-28T05:14:13;4.70;99.90
23629;DHT22;11991;57.150;-2.134;2023-02-28T05:16:41;4.60;99.90
23629;DHT22;11991;57.150;-2.134;2023-02-28T05:19:08;4.60;99.90
23629;DHT22;11991;57.150;-2.134;2023-02-28T05:21:38;4.60;99.90
23629;DHT22;11991;57.150;-2.134;2023-02-28T05:24:10;4.60;99.90
23629;DHT22;11991;57.150;-2.134;2023-02-28T05:26:40;4.60;99.90
23629;DHT22;11991;57.150;-2.134;2023-02-28T05:29:08;4.60;99.90
23629;DHT22;11991;57.150;-2.134;2023-02-28T05:31:36;4.60;99.90
23629;DHT22;11991;57.150;-2.134;2023-02-28T05:34:05;4.60;99.90
23629;DHT22;11991;57.150;-2.134;2023-02-28T05:36:33;4.60;99.90
23629;DHT22;11991;57.150;-2.134;2023-02-28T05:39:00;4.60;99.90
23629;DHT22;11991;57.150;-2.134;2023-02-28T05:41:27;4.60;99.90
23629;DHT22;11991;57.150;-2.134;2023-02-28T05:43:56;4.60;99.90
23629;DHT22;11991;57.150;-2.134;2023-02-28T05:46:23;4.60;99.90
23629;DHT22;11991;57.150;-2.134;2023-02-28T05:48:51;4.60;99.90
23629;DHT22;11991;57.150;-2.134;2023-02-28T05:51:18;4.60;99.90
23629;DHT22;11991;57.150;-2.134;2023-02-28T05:53:46;4.60;99.90
23629;DHT22;11991;57.150;-2.134;2023-02-28T05:56:15;4.60;99.90
23629;DHT22;11991;57.150;-2.134;2023-02-28T05:58:42;4.60;99.90
23629;DHT22;11991;57.150;-2.134;2023-02-28T06:04:01;4.50;99.90
23629;DHT22;11991;57.150;-2.134;2023-02-28T06:06:28;4.50;99.90
23629;DHT22;11991;57.150;-2.134;2023-02-28T06:08:56;4.50;99.90
23629;DHT22;11991;57.150;-2.134;2023-02-28T06:11:24;4.50;99.90
23629;DHT22;11991;57.150;-2.134;2023-02-28T06:13:59;4.50;99.90
23629;DHT22;11991;57.150;-2.134;2023-02-28T06:16:28;4.50;99.90
23629;DHT22;11991;57.150;-2.134;2023-02-28T06:19:01;4.50;99.90
23629;DHT22;11991;57.150;-2.134;2023-02-28T06:21:29;4.50;99.90
23629;DHT22;11991;57.150;-2.134;2023-02-28T06:23:57;4.50;99.90
23629;DHT22;11991;57.150;-2.134;2023-02-28T06:26:25;4.50;99.90
23629;DHT22;11991;57.150;-2.134;2023-02-28T06:28:52;4.50;99.90
23629;DHT22;11991;57.150;-2.134;2023-02-28T06:31:19;4.50;99.90
23629;DHT22;11991;57.150;-2.134;2023-02-28T06:33:47;4.50;99.90
23629;DHT22;11991;57.150;-2.134;2023-02-28T06:36:15;4.50;99.90
23629;DHT22;11991;57.150;-2.134;2023-02-28T06:38:43;4.50;99.90
23629;DHT22;11991;57.150;-2.134;2023-02-28T06:41:11;4.50;99.90
23629;DHT22;11991;57.150;-2.134;2023-02-28T06:43:41;4.50;99.90
23629;DHT22;11991;57.150;-2.134;2023-02-28T06:46:12;4.50;99.90
23629;DHT22;11991;57.150;-2.134;2023-02-28T06:48:45;4.50;99.90
23629;DHT22;11991;57.150;-2.134;2023-02-28T06:51:16;4.50;99.90
23629;DHT22;11991;57.150;-2.134;2023-02-28T06:53:44;4.50;99.90
23629;DHT22;11991;57.150;-2.134;2023-02-28T06:56:14;4.50;99.90
23629;DHT22;11991;57.150;-2.134;2023-02-28T06:58:42;4.50;99.90
23629;DHT22;11991;57.150;-2.134;2023-02-28T07:01:09;4.50;99.90
23629;DHT22;11991;57.150;-2.134;2023-02-28T07:03:36;4.50;99.90
23629;DHT22;11991;57.150;-2.134;2023-02-28T07:06:05;4.50;99.90
23629;DHT22;11991;57.150;-2.134;2023-02-28T07:08:33;4.50;99.90
23629;DHT22;11991;57.150;-2.134;2023-02-28T07:11:00;4.50;99.90
23629;DHT22;11991;57.150;-2.134;2023-02-28T07:13:27;4.50;99.90
23629;DHT22;11991;57.150;-2.134;2023-02-28T07:16:02;4.50;99.90
23629;DHT22;11991;57.150;-2.134;2023-02-28T07:18:32;4.40;99.90
23629;DHT22;11991;57.150;-2.134;2023-02-28T07:21:07;4.40;99.90
23629;DHT22;11991;57.150;-2.134;2023-02-28T07:23:37;4.50;99.90
23629;DHT22;11991;57.150;-2.134;2023-02-28T07:26:14;4.50;99.90
23629;DHT22;11991;57.150;-2.134;2023-02-28T07:28:45;4.40;99.90
23629;DHT22;11991;57.150;-2.134;2023-02-28T07:31:16;4.50;99.90
23629;DHT22;11991;57.150;-2.134;2023-02-28T07:33:46;4.50;99.90
23629;DHT22;11991;57.150;-2.134;2023-02-28T07:36:16;4.50;99.90
23629;DHT22;11991;57.150;-2.134;2023-02-28T07:38:47;4.50;99.90
23629;DHT22;11991;57.150;-2.134;2023-02-28T07:41:19;4.50;99.90
23629;DHT22;11991;57.150;-2.134;2023-02-28T07:43:47;4.50;99.90
23629;DHT22;11991;57.150;-2.134;2023-02-28T07:46:16;4.50;99.90
23629;DHT22;11991;57.150;-2.134;2023-02-28T07:48:44;4.50;99.90
23629;DHT22;11991;57.150;-2.134;2023-02-28T07:51:12;4.50;99.90
23629;DHT22;11991;57.150;-2.134;2023-02-28T07:53:39;4.40;99.90
23629;DHT22;11991;57.150;-2.134;2023-02-28T07:56:07;4.50;99.90
23629;DHT22;11991;57.150;-2.134;2023-02-28T07:58:34;4.50;99.90
23629;DHT22;11991;57.150;-2.134;2023-02-28T08:01:09;4.50;99.90
23629;DHT22;11991;57.150;-2.134;2023-02-28T08:03:38;4.50;99.90
23629;DHT22;11991;57.150;-2.134;2023-02-28T08:06:07;4.60;99.90
23629;DHT22;11991;57.150;-2.134;2023-02-28T08:08:35;4.60;99.90
23629;DHT22;11991;57.150;-2.134;2023-02-28T08:11:03;4.60;99.90
23629;DHT22;11991;57.150;-2.134;2023-02-28T08:13:31;4.70;99.90
23629;DHT22;11991;57.150;-2.134;2023-02-28T08:16:01;4.70;99.90
23629;DHT22;11991;57.150;-2.134;2023-02-28T08:18:33;4.70;99.90
23629;DHT22;11991;57.150;-2.134;2023-02-28T08:21:09;4.80;99.90
23629;DHT22;11991;57.150;-2.134;2023-02-28T08:23:37;4.80;99.90
23629;DHT22;11991;57.150;-2.134;2023-02-28T08:26:04;4.80;99.90
23629;DHT22;11991;57.150;-2.134;2023-02-28T08:28:32;4.80;99.90
23629;DHT22;11991;57.150;-2.134;2023-02-28T08:30:59;4.80;99.90
23629;DHT22;11991;57.150;-2.134;2023-02-28T08:33:27;4.80;99.90
23629;DHT22;11991;57.150;-2.134;2023-02-28T08:35:56;4.80;99.90
23629;DHT22;11991;57.150;-2.134;2023-02-28T08:38:24;4.80;99.90
23629;DHT22;11991;57.150;-2.134;2023-02-28T08:41:01;4.80;99.90
23629;DHT22;11991;57.150;-2.134;2023-02-28T08:43:32;4.80;99.90
23629;DHT22;11991;57.150;-2.134;2023-02-28T08:46:00;4.90;99.90
23629;DHT22;11991;57.150;-2.134;2023-02-28T08:48:31;4.90;99.90
23629;DHT22;11991;57.150;-2.134;2023-02-28T08:51:05;5.00;99.90
23629;DHT22;11991;57.150;-2.134;2023-02-28T08:53:38;5.00;99.90
23629;DHT22;11991;57.150;-2.134;2023-02-28T08:56:12;5.00;99.90
23629;DHT22;11991;57.150;-2.134;2023-02-28T08:58:40;5.10;99.90
23629;DHT22;11991;57.150;-2.134;2023-02-28T09:01:13;5.10;99.90
23629;DHT22;11991;57.150;-2.134;2023-02-28T09:03:41;5.10;99.90
23629;DHT22;11991;57.150;-2.134;2023-02-28T09:06:10;5.10;99.90
23629;DHT22;11991;57.150;-2.134;2023-02-28T09:08:38;5.20;99.90
23629;DHT22;11991;57.150;-2.134;2023-02-28T09:11:06;5.20;99.90
23629;DHT22;11991;57.150;-2.134;2023-02-28T09:13:34;5.20;99.90
23629;DHT22;11991;57.150;-2.134;2023-02-28T09:16:04;5.20;99.90
23629;DHT22;11991;57.150;-2.134;2023-02-28T09:18:33;5.30;99.90
23629;DHT22;11991;57.150;-2.134;2023-02-28T09:21:03;5.20;99.90
23629;DHT22;11991;57.150;-2.134;2023-02-28T09:23:30;5.20;99.90
23629;DHT22;11991;57.150;-2.134;2023-02-28T09:25:58;5.30;99.90
23629;DHT22;11991;57.150;-2.134;2023-02-28T09:28:25;5.30;99.90
23629;DHT22;11991;57.150;-2.134;2023-02-28T09:30:54;5.20;99.90
23629;DHT22;11991;57.150;-2.134;2023-02-28T09:33:21;5.20;99.90
23629;DHT22;11991;57.150;-2.134;2023-02-28T09:35:50;5.30;99.90
23629;DHT22;11991;57.150;-2.134;2023-02-28T09:38:17;5.30;99.90
23629;DHT22;11991;57.150;-2.134;2023-02-28T09:43:22;5.40;99.90
23629;DHT22;11991;57.150;-2.134;2023-02-28T09:45:59;5.50;99.90
23629;DHT22;11991;57.150;-2.134;2023-02-28T09:48:39;5.50;99.90
23629;DHT22;11991;57.150;-2.134;2023-02-28T09:53:44;5.50;99.90
23629;DHT22;11991;57.150;-2.134;2023-02-28T09:56:32;5.60;99.90
23629;DHT22;11991;57.150;-2.134;2023-02-28T10:01:50;5.70;99.90
23629;DHT22;11991;57.150;-2.134;2023-02-28T10:04:36;5.80;99.90
23629;DHT22;11991;57.150;-2.134;2023-02-28T10:07:25;5.80;99.90
23629;DHT22;11991;57.150;-2.134;2023-02-28T10:09:59;5.80;99.90
23629;DHT22;11991;57.150;-2.134;2023-02-28T10:12:30;5.90;99.90
23629;DHT22;11991;57.150;-2.134;2023-02-28T10:14:59;5.90;99.90
23629;DHT22;11991;57.150;-2.134;2023-02-28T10:17:40;6.00;99.90
23629;DHT22;11991;57.150;-2.134;2023-02-28T10:20:23;5.90;99.90
23629;DHT22;11991;57.150;-2.134;2023-02-28T10:25:28;5.90;99.90
23629;DHT22;11991;57.150;-2.134;2023-02-28T10:30:37;5.90;99.90
23629;DHT22;11991;57.150;-2.134;2023-02-28T10:33:08;5.90;99.90
23629;DHT22;11991;57.150;-2.134;2023-02-28T10:35:39;5.90;99.90
23629;DHT22;11991;57.150;-2.134;2023-02-28T10:38:19;6.00;99.90
23629;DHT22;11991;57.150;-2.134;2023-02-28T10:40:47;6.00;99.90
23629;DHT22;11991;57.150;-2.134;2023-02-28T10:48:33;6.40;99.90
23629;DHT22;11991;57.150;-2.134;2023-02-28T10:51:02;6.40;99.90
23629;DHT22;11991;57.150;-2.134;2023-02-28T10:53:52;6.50;99.90
23629;DHT22;11991;57.150;-2.134;2023-02-28T10:56:29;6.50;99.90
23629;DHT22;11991;57.150;-2.134;2023-02-28T11:06:59;6.50;99.90
23629;DHT22;11991;57.150;-2.134;2023-02-28T11:09:35;6.50;99.90
23629;DHT22;11991;57.150;-2.134;2023-02-28T11:12:08;6.50;99.90
23629;DHT22;11991;57.150;-2.134;2023-02-28T11:14:55;6.50;99.90
23629;DHT22;11991;57.150;-2.134;2023-02-28T11:17:26;6.60;99.90
23629;DHT22;11991;57.150;-2.134;2023-02-28T11:20:14;6.60;99.90
23629;DHT22;11991;57.150;-2.134;2023-02-28T11:22:47;6.60;99.90
23629;DHT22;11991;57.150;-2.134;2023-02-28T11:25:21;6.70;99.90
23629;DHT22;11991;57.150;-2.134;2023-02-28T11:28:04;6.70;99.90
23629;DHT22;11991;57.150;-2.134;2023-02-28T11:33:22;6.80;99.90
23629;DHT22;11991;57.150;-2.134;2023-02-28T11:35:51;6.80;99.90
23629;DHT22;11991;57.150;-2.134;2023-02-28T11:38:20;6.80;99.90
23629;DHT22;11991;57.150;-2.134;2023-02-28T11:46:40;6.90;99.90
23629;DHT22;11991;57.150;-2.134;2023-02-28T11:52:13;6.90;99.90
23629;DHT22;11991;57.150;-2.134;2023-02-28T11:54:53;7.00;99.90
23629;DHT22;11991;57.150;-2.134;2023-02-28T12:05:44;7.00;99.90
23629;DHT22;11991;57.150;-2.134;2023-02-28T12:08:21;7.00;99.90
23629;DHT22;11991;57.150;-2.134;2023-02-28T12:13:40;7.00;99.90
23629;DHT22;11991;57.150;-2.134;2023-02-28T12:24:52;6.90;99.90
23629;DHT22;11991;57.150;-2.134;2023-02-28T12:27:25;6.80;99.90
23629;DHT22;11991;57.150;-2.134;2023-02-28T12:29:55;6.80;99.90
23629;DHT22;11991;57.150;-2.134;2023-02-28T12:32:36;6.80;99.90
23629;DHT22;11991;57.150;-2.134;2023-02-28T12:35:14;6.80;99.90
23629;DHT22;11991;57.150;-2.134;2023-02-28T12:38:09;6.80;99.90
23629;DHT22;11991;57.150;-2.134;2023-02-28T12:41:02;6.80;99.90
23629;DHT22;11991;57.150;-2.134;2023-02-28T12:43:37;6.80;99.90
23629;DHT22;11991;57.150;-2.134;2023-02-28T12:46:12;6.70;99.90
23629;DHT22;11991;57.150;-2.134;2023-02-28T12:48:48;6.70;99.90
23629;DHT22;11991;57.150;-2.134;2023-02-28T12:51:24;6.70;99.90
23629;DHT22;11991;57.150;-2.134;2023-02-28T12:54:19;6.70;99.90
23629;DHT22;11991;57.150;-2.134;2023-02-28T12:57:15;6.70;99.90
23629;DHT22;11991;57.150;-2.134;2023-02-28T13:02:52;6.70;99.90
23629;DHT22;11991;57.150;-2.134;2023-02-28T13:05:46;6.70;99.90
23629;DHT22;11991;57.150;-2.134;2023-02-28T13:14:29;6.80;99.90
23629;DHT22;11991;57.150;-2.134;2023-02-28T13:19:44;6.80;99.90
23629;DHT22;11991;57.150;-2.134;2023-02-28T13:22:39;6.80;99.90
23629;DHT22;11991;57.150;-2.134;2023-02-28T13:27:54;6.90;99.90
23629;DHT22;11991;57.150;-2.134;2023-02-28T13:31:16;6.90;99.90
23629;DHT22;11991;57.150;-2.134;2023-02-28T13:41:56;6.90;99.90
23629;DHT22;11991;57.150;-2.134;2023-02-28T13:44:23;6.90;99.90
23629;DHT22;11991;57.150;-2.134;2023-02-28T13:47:18;6.80;99.90
23629;DHT22;11991;57.150;-2.134;2023-02-28T13:49:41;6.80;99.90
23629;DHT22;11991;57.150;-2.134;2023-02-28T13:57:44;6.80;99.90
23629;DHT22;11991;57.150;-2.134;2023-02-28T14:00:22;6.80;99.90
23629;DHT22;11991;57.150;-2.134;2023-02-28T14:05:31;6.70;99.90
23629;DHT22;11991;57.150;-2.134;2023-02-28T14:08:18;6.60;99.90
23629;DHT22;11991;57.150;-2.134;2023-02-28T14:11:23;6.50;99.90
23629;DHT22;11991;57.150;-2.134;2023-02-28T14:13:55;6.50;99.90
23629;DHT22;11991;57.150;-2.134;2023-02-28T14:16:46;6.40;99.90
23629;DHT22;11991;57.150;-2.134;2023-02-28T14:19:26;6.50;99.90
23629;DHT22;11991;57.150;-2.134;2023-02-28T14:22:25;6.50;99.90
23629;DHT22;11991;57.150;-2.134;2023-02-28T14:37:27;6.70;99.90
23629;DHT22;11991;57.150;-2.134;2023-02-28T14:40:04;6.70;99.90
23629;DHT22;11991;57.150;-2.134;2023-02-28T14:42:59;6.80;99.90
23629;DHT22;11991;57.150;-2.134;2023-02-28T14:46:01;6.90;99.90
23629;DHT22;11991;57.150;-2.134;2023-02-28T14:49:41;6.90;99.90
23629;DHT22;11991;57.150;-2.134;2023-02-28T14:55:49;7.00;99.90
23629;DHT22;11991;57.150;-2.134;2023-02-28T14:59:26;7.00;99.90
23629;DHT22;11991;57.150;-2.134;2023-02-28T15:02:19;7.00;99.90
23629;DHT22;11991;57.150;-2.134;2023-02-28T15:08:16;7.00;99.90
23629;DHT22;11991;57.150;-2.134;2023-02-28T15:11:32;7.00;99.90
23629;DHT22;11991;57.150;-2.134;2023-02-28T15:21:29;7.00;99.90
23629;DHT22;11991;57.150;-2.134;2023-02-28T15:24:50;7.10;99.90
23629;DHT22;11991;57.150;-2.134;2023-02-28T15:27:53;7.10;99.90
23629;DHT22;11991;57.150;-2.134;2023-02-28T15:30:54;7.10;99.90
23629;DHT22;11991;57.150;-2.134;2023-02-28T15:33:58;7.10;99.90
23629;DHT22;11991;57.150;-2.134;2023-02-28T15:36:34;7.10;99.90
23629;DHT22;11991;57.150;-2.134;2023-02-28T15:39:55;7.10;99.90
23629;DHT22;11991;57.150;-2.134;2023-02-28T15:42:29;7.00;99.90
23629;DHT22;11991;57.150;-2.134;2023-02-28T15:45:28;6.90;99.90
23629;DHT22;11991;57.150;-2.134;2023-02-28T15:47:57;6.80;99.90
23629;DHT22;11991;57.150;-2.134;2023-02-28T15:54:01;6.70;99.90
23629;DHT22;11991;57.150;-2.134;2023-02-28T15:56:35;6.70;99.90
23629;DHT22;11991;57.150;-2.134;2023-02-28T15:59:07;6.70;99.90
23629;DHT22;11991;57.150;-2.134;2023-02-28T16:01:37;6.70;99.90
23629;DHT22;11991;57.150;-2.134;2023-02-28T16:04:17;6.70;99.90
23629;DHT22;11991;57.150;-2.134;2023-02-28T16:09:29;6.70;99.90
23629;DHT22;11991;57.150;-2.134;2023-02-28T16:12:02;6.60;99.90
23629;DHT22;11991;57.150;-2.134;2023-02-28T16:14:30;6.60;99.90
23629;DHT22;11991;57.150;-2.134;2023-02-28T16:17:23;6.60;99.90
23629;DHT22;11991;57.150;-2.134;2023-02-28T16:19:51;6.60;99.90
23629;DHT22;11991;57.150;-2.134;2023-02-28T16:22:19;6.60;99.90
23629;DHT22;11991;57.150;-2.134;2023-02-28T16:24:46;6.60;99.90
23629;DHT22;11991;57.150;-2.134;2023-02-28T16:27:17;6.60;99.90
23629;DHT22;11991;57.150;-2.134;2023-02-28T16:29:45;6.60;99.90
23629;DHT22;11991;57.150;-2.134;2023-02-28T16:32:15;6.50;99.90
23629;DHT22;11991;57.150;-2.134;2023-02-28T16:34:43;6.50;99.90
23629;DHT22;11991;57.150;-2.134;2023-02-28T16:37:16;6.50;99.90
23629;DHT22;11991;57.150;-2.134;2023-02-28T16:39:44;6.50;99.90
23629;DHT22;11991;57.150;-2.134;2023-02-28T16:42:23;6.50;99.90
23629;DHT22;11991;57.150;-2.134;2023-02-28T16:44:52;6.50;99.90
23629;DHT22;11991;57.150;-2.134;2023-02-28T16:47:20;6.50;99.90
23629;DHT22;11991;57.150;-2.134;2023-02-28T16:49:48;6.40;99.90
23629;DHT22;11991;57.150;-2.134;2023-02-28T16:52:15;6.40;99.90
23629;DHT22;11991;57.150;-2.134;2023-02-28T16:54:43;6.40;99.90
23629;DHT22;11991;57.150;-2.134;2023-02-28T16:57:23;6.40;99.90
23629;DHT22;11991;57.150;-2.134;2023-02-28T16:59:50;6.40;99.90
23629;DHT22;11991;57.150;-2.134;2023-02-28T17:02:19;6.40;99.90
23629;DHT22;11991;57.150;-2.134;2023-02-28T17:04:47;6.40;99.90
23629;DHT22;11991;57.150;-2.134;2023-02-28T17:07:15;6.40;99.90
23629;DHT22;11991;57.150;-2.134;2023-02-28T17:09:44;6.40;99.90
23629;DHT22;11991;57.150;-2.134;2023-02-28T17:12:12;6.50;99.90
23629;DHT22;11991;57.150;-2.134;2023-02-28T17:14:40;6.40;99.90
23629;DHT22;11991;57.150;-2.134;2023-02-28T17:17:09;6.40;99.90
23629;DHT22;11991;57.150;-2.134;2023-02-28T17:19:38;6.30;99.90
23629;DHT22;11991;57.150;-2.134;2023-02-28T17:22:10;6.30;99.90
23629;DHT22;11991;57.150;-2.134;2023-02-28T17:24:37;6.20;99.90
23629;DHT22;11991;57.150;-2.134;2023-02-28T17:27:05;6.20;99.90
23629;DHT22;11991;57.150;-2.134;2023-02-28T17:29:32;6.10;99.90
23629;DHT22;11991;57.150;-2.134;2023-02-28T17:31:59;6.00;99.90
23629;DHT22;11991;57.150;-2.134;2023-02-28T17:34:43;6.00;99.90
23629;DHT22;11991;57.150;-2.134;2023-02-28T17:37:11;6.00;99.90
23629;DHT22;11991;57.150;-2.134;2023-02-28T17:39:38;6.00;99.90
23629;DHT22;11991;57.150;-2.134;2023-02-28T17:42:06;6.00;99.90
23629;DHT22;11991;57.150;-2.134;2023-02-28T17:44:33;6.00;99.90
23629;DHT22;11991;57.150;-2.134;2023-02-28T17:47:00;6.00;99.90
23629;DHT22;11991;57.150;-2.134;2023-02-28T17:49:28;5.90;99.90
23629;DHT22;11991;57.150;-2.134;2023-02-28T17:51:55;5.90;99.90
23629;DHT22;11991;57.150;-2.134;2023-02-28T17:54:22;5.90;99.90
23629;DHT22;11991;57.150;-2.134;2023-02-28T17:56:49;6.00;99.90
23629;DHT22;11991;57.150;-2.134;2023-02-28T17:59:17;6.00;99.90
23629;DHT22;11991;57.150;-2.134;2023-02-28T18:01:44;6.00;99.90
23629;DHT22;11991;57.150;-2.134;2023-02-28T18:04:11;6.00;99.90
23629;DHT22;11991;57.150;-2.134;2023-02-28T18:06:41;5.90;99.90
23629;DHT22;11991;57.150;-2.134;2023-02-28T18:09:20;5.90;99.90
23629;DHT22;11991;57.150;-2.134;2023-02-28T18:11:53;5.90;99.90
23629;DHT22;11991;57.150;-2.134;2023-02-28T18:14:22;6.00;99.90
23629;DHT22;11991;57.150;-2.134;2023-02-28T18:16:52;6.00;99.90
23629;DHT22;11991;57.150;-2.134;2023-02-28T18:19:19;6.00;99.90
23629;DHT22;11991;57.150;-2.134;2023-02-28T18:21:49;6.00;99.90
23629;DHT22;11991;57.150;-2.134;2023-02-28T18:24:18;6.00;99.90
23629;DHT22;11991;57.150;-2.134;2023-02-28T18:26:45;6.00;99.90
23629;DHT22;11991;57.150;-2.134;2023-02-28T18:29:24;6.00;99.90
23629;DHT22;11991;57.150;-2.134;2023-02-28T18:31:53;6.00;99.90
23629;DHT22;11991;57.150;-2.134;2023-02-28T18:34:23;6.00;99.90
23629;DHT22;11991;57.150;-2.134;2023-02-28T18:36:51;6.00;99.90
23629;DHT22;11991;57.150;-2.134;2023-02-28T18:39:19;6.00;99.90
23629;DHT22;11991;57.150;-2.134;2023-02-28T18:41:46;6.00;99.90
23629;DHT22;11991;57.150;-2.134;2023-02-28T18:44:14;6.00;99.90